Time;durP1;ratioP1;P1;durP2;ratioP2;P2;SDS_P1;SDS_P2;PMS_P1;PMS_P2;Temp;Humidity;BMP_temperature;BMP_pressure;BME280_temperature;BME280_humidity;BME280_pressure;Samples;Min_cycle;Max_cycle;Signal;HPM_P1;HPM_P2
2023/08/02 00:00:56;;;;;;;4.28;1.45;;;17.60;99.90;;;;;;5014619;28;20210;-64
2023/08/02 00:03:22;;;;;;;3.88;1.60;;;17.60;99.90;;;;;;5014753;28;20242;-64
2023/08/02 00:05:54;;;;;;;3.20;1.67;;;17.50;99.90;;;;;;5014585;28;20218;-64
2023/08/02 00:08:21;;;;;;;4.65;1.58;;;17.50;99.90;;;;;;5014409;28;20199;-64
2023/08/02 00:10:48;;;;;;;3.90;1.55;;;17.40;99.90;;;;;;5014591;28;20215;-64
2023/08/02 00:13:16;;;;;;;3.25;1.50;;;17.40;99.90;;;;;;5014477;28;20234;-64
2023/08/02 00:15:43;;;;;;;5.78;1.55;;;17.30;99.90;;;;;;5014190;28;20706;-64
2023/08/02 00:18:10;;;;;;;3.85;1.80;;;17.20;99.90;;;;;;5014533;28;20234;-64
2023/08/02 00:20:37;;;;;;;4.53;1.60;;;17.20;99.90;;;;;;5014489;28;20210;-64
2023/08/02 00:23:04;;;;;;;6.07;1.60;;;17.20;99.90;;;;;;5014412;28;20227;-64
2023/08/02 00:25:31;;;;;;;2.05;1.20;;;17.20;99.90;;;;;;5014324;28;20222;-64
2023/08/02 00:27:58;;;;;;;2.65;1.42;;;17.20;99.90;;;;;;5013846;28;20221;-64
2023/08/02 00:30:26;;;;;;;3.97;1.27;;;17.20;99.90;;;;;;5014164;28;20214;-65
2023/08/02 00:32:53;;;;;;;3.42;1.40;;;17.20;99.90;;;;;;5056465;22;20224;-58
2023/08/02 00:35:20;;;;;;;2.35;1.40;;;17.20;99.90;;;;;;5074319;28;20205;-58
2023/08/02 00:37:47;;;;;;;2.53;1.50;;;17.30;99.90;;;;;;5074142;28;20201;-58
2023/08/02 00:40:14;;;;;;;2.15;1.60;;;17.30;99.90;;;;;;5074231;28;20216;-58
2023/08/02 00:42:41;;;;;;;3.17;1.40;;;17.30;99.90;;;;;;5074179;28;20225;-58
2023/08/02 00:45:08;;;;;;;1.92;1.20;;;17.30;99.90;;;;;;5074269;28;20555;-58
2023/08/02 00:47:37;;;;;;;2.58;1.30;;;17.30;99.90;;;;;;5074055;28;20270;-58
2023/08/02 00:50:05;;;;;;;3.42;1.30;;;17.40;99.90;;;;;;5074179;28;20227;-58
2023/08/02 00:52:32;;;;;;;3.28;1.33;;;17.30;99.90;;;;;;5074081;28;20221;-58
2023/08/02 00:54:59;;;;;;;1.83;1.40;;;17.40;99.90;;;;;;5073995;28;20212;-58
2023/08/02 00:57:26;;;;;;;5.18;1.45;;;17.40;99.90;;;;;;5073636;28;20326;-58
2023/08/02 00:59:53;;;;;;;1.77;1.40;;;17.40;99.90;;;;;;5074007;28;20224;-58
2023/08/02 01:02:20;;;;;;;3.03;1.40;;;17.40;99.90;;;;;;5074146;28;20201;-58
2023/08/02 01:04:48;;;;;;;2.95;1.60;;;17.50;99.90;;;;;;5073926;28;20207;-58
2023/08/02 01:07:24;;;;;;;2.47;1.45;;;17.50;99.90;;;;;;5073023;28;20600;-58
2023/08/02 01:09:58;;;;;;;3.50;1.42;;;17.50;99.90;;;;;;5073477;28;20204;-58
2023/08/02 01:12:25;;;;;;;3.20;1.52;;;17.60;99.90;;;;;;5073753;28;20212;-58
2023/08/02 01:15:00;;;;;;;5.38;1.73;;;17.50;99.90;;;;;;5073628;28;20205;-58
2023/08/02 01:17:29;;;;;;;2.58;1.50;;;17.50;99.90;;;;;;5073266;28;20204;-57
2023/08/02 01:20:03;;;;;;;1.77;1.40;;;17.50;99.90;;;;;;5073415;28;20252;-57
2023/08/02 01:22:30;;;;;;;3.33;1.70;;;17.40;99.90;;;;;;5073362;28;20272;-58
2023/08/02 01:24:59;;;;;;;1.92;1.30;;;17.50;99.90;;;;;;5073558;28;20216;-58
2023/08/02 01:27:33;;;;;;;1.95;1.45;;;17.50;99.90;;;;;;5073212;28;20201;-58
2023/08/02 01:30:02;;;;;;;3.22;1.25;;;17.40;99.90;;;;;;5073272;28;20573;-58
2023/08/02 01:32:29;;;;;;;4.00;1.80;;;17.30;99.90;;;;;;5073061;28;20232;-58
2023/08/02 01:34:56;;;;;;;5.05;1.60;;;17.30;99.90;;;;;;5073180;28;20209;-57
2023/08/02 01:37:24;;;;;;;2.97;1.77;;;17.20;99.90;;;;;;5072998;28;20208;-57
2023/08/02 01:39:51;;;;;;;5.03;1.67;;;17.20;99.90;;;;;;5072987;28;20233;-58
2023/08/02 01:42:18;;;;;;;4.53;1.77;;;17.20;99.90;;;;;;5072974;28;20239;-57
2023/08/02 01:44:45;;;;;;;4.90;1.90;;;17.20;99.90;;;;;;5072964;28;20204;-57
2023/08/02 01:47:12;;;;;;;2.60;1.70;;;17.10;99.90;;;;;;5072617;28;20581;-58
2023/08/02 01:49:39;;;;;;;3.08;1.92;;;17.10;99.90;;;;;;5073153;28;20211;-58
2023/08/02 01:52:06;;;;;;;2.33;1.50;;;17.10;99.90;;;;;;5072962;28;20617;-58
2023/08/02 01:54:34;;;;;;;3.67;1.65;;;17.10;99.90;;;;;;5072770;28;20713;-58
2023/08/02 01:57:00;;;;;;;4.15;1.65;;;17.10;99.90;;;;;;5072615;28;20208;-58
2023/08/02 01:59:27;;;;;;;2.95;1.63;;;17.10;99.90;;;;;;5072610;28;20221;-57
2023/08/02 02:01:54;;;;;;;3.10;1.33;;;17.10;99.90;;;;;;5072884;28;20204;-58
2023/08/02 02:04:20;;;;;;;1.58;1.38;;;17.10;99.90;;;;;;5073265;28;20225;-58
2023/08/02 02:06:47;;;;;;;4.72;2.67;;;17.10;99.90;;;;;;5072627;28;20205;-58
2023/08/02 02:09:14;;;;;;;5.15;1.88;;;17.10;99.90;;;;;;5072687;28;20208;-58
2023/08/02 02:11:42;;;;;;;3.05;1.75;;;17.10;99.90;;;;;;5072341;28;20205;-57
2023/08/02 02:14:09;;;;;;;5.07;2.03;;;17.10;99.90;;;;;;5072329;28;20254;-58
2023/08/02 02:16:35;;;;;;;2.92;1.80;;;17.10;99.90;;;;;;5072163;28;20209;-57
2023/08/02 02:19:02;;;;;;;5.47;2.30;;;17.00;99.90;;;;;;5072655;28;20379;-57
2023/08/02 02:21:29;;;;;;;6.57;2.10;;;17.10;99.90;;;;;;5072546;28;20248;-57
2023/08/02 02:23:56;;;;;;;5.13;1.83;;;17.00;99.90;;;;;;5072715;28;20236;-57
2023/08/02 02:26:24;;;;;;;4.22;1.70;;;17.00;99.90;;;;;;5072008;28;20205;-57
2023/08/02 02:28:52;;;;;;;2.55;1.45;;;17.00;99.90;;;;;;5072123;28;20721;-58
2023/08/02 02:31:18;;;;;;;3.05;1.90;;;16.90;99.90;;;;;;5072296;28;20221;-58
2023/08/02 02:33:45;;;;;;;3.67;2.55;;;17.00;99.90;;;;;;5072109;28;20244;-57
2023/08/02 02:36:12;;;;;;;4.93;3.33;;;17.10;99.90;;;;;;5071992;28;20205;-57
2023/08/02 02:38:39;;;;;;;11.27;6.05;;;17.00;99.90;;;;;;5072029;28;20208;-58
2023/08/02 02:41:05;;;;;;;4.38;2.78;;;17.10;99.90;;;;;;5071824;28;20212;-58
2023/08/02 02:43:32;;;;;;;4.38;2.45;;;17.10;99.90;;;;;;5071592;28;20240;-57
2023/08/02 02:46:00;;;;;;;3.55;2.47;;;17.10;99.90;;;;;;5071733;28;20201;-58
2023/08/02 02:48:27;;;;;;;2.10;1.70;;;17.20;99.90;;;;;;5071986;28;20205;-58
2023/08/02 02:50:54;;;;;;;3.47;1.92;;;17.20;99.90;;;;;;5071835;28;20217;-58
2023/08/02 02:53:23;;;;;;;3.72;2.08;;;17.10;99.90;;;;;;5071669;28;20228;-58
2023/08/02 02:55:51;;;;;;;4.13;1.80;;;17.10;99.90;;;;;;5071548;28;20209;-58
2023/08/02 02:58:18;;;;;;;3.88;2.58;;;17.10;99.90;;;;;;5071495;28;20204;-58
2023/08/02 03:00:45;;;;;;;2.15;1.50;;;17.10;99.90;;;;;;5071546;28;20228;-58
2023/08/02 03:03:13;;;;;;;3.95;2.05;;;17.00;99.90;;;;;;5071556;28;20220;-58
2023/08/02 03:05:40;;;;;;;4.63;2.15;;;17.00;99.90;;;;;;5071393;28;20673;-58
2023/08/02 03:08:06;;;;;;;4.63;2.50;;;17.10;99.90;;;;;;5071375;28;20208;-57
2023/08/02 03:10:33;;;;;;;4.45;2.67;;;17.10;99.90;;;;;;5071356;28;20680;-58
2023/08/02 03:13:00;;;;;;;5.07;2.10;;;17.10;99.90;;;;;;5071568;28;20400;-58
2023/08/02 03:15:27;;;;;;;4.15;2.03;;;17.10;99.90;;;;;;5071491;28;20209;-58
2023/08/02 03:17:53;;;;;;;4.45;1.83;;;17.20;99.90;;;;;;5071187;28;20221;-58
2023/08/02 03:20:21;;;;;;;3.92;1.85;;;17.20;99.90;;;;;;5071424;28;20232;-58
2023/08/02 03:22:48;;;;;;;2.70;2.00;;;17.30;99.90;;;;;;5071165;28;20898;-58
2023/08/02 03:25:15;;;;;;;2.78;1.70;;;17.30;99.90;;;;;;5071161;28;20205;-58
2023/08/02 03:27:42;;;;;;;3.03;2.15;;;17.40;99.90;;;;;;5071311;28;20205;-58
2023/08/02 03:30:09;;;;;;;4.82;1.95;;;17.50;99.90;;;;;;5071443;28;20205;-58
2023/08/02 03:32:36;;;;;;;3.97;1.70;;;17.60;99.90;;;;;;5077485;28;20240;-58
2023/08/02 03:35:02;;;;;;;3.00;2.25;;;17.80;99.90;;;;;;5078031;28;20208;-58
2023/08/02 03:37:30;;;;;;;3.42;2.50;;;17.90;99.90;;;;;;5077537;28;20205;-58
2023/08/02 03:39:57;;;;;;;2.75;1.80;;;18.00;99.90;;;;;;5077737;28;20229;-59
2023/08/02 03:42:24;;;;;;;3.70;1.80;;;18.00;99.90;;;;;;5077790;28;20201;-59
2023/08/02 03:44:50;;;;;;;5.10;1.67;;;18.00;99.90;;;;;;5077780;28;20204;-59
2023/08/02 03:47:17;;;;;;;2.55;1.60;;;18.00;99.90;;;;;;5077502;28;20204;-58
2023/08/02 03:49:44;;;;;;;6.35;1.50;;;18.10;99.90;;;;;;5077810;28;20227;-58
2023/08/02 03:52:11;;;;;;;3.30;1.40;;;18.20;99.90;;;;;;5077599;28;20204;-58
2023/08/02 03:54:39;;;;;;;2.85;1.67;;;18.20;99.90;;;;;;5077685;28;20205;-57
2023/08/02 03:57:07;;;;;;;3.75;1.70;;;18.30;99.90;;;;;;5077743;28;20213;-57
2023/08/02 03:59:34;;;;;;;6.68;1.70;;;18.30;99.90;;;;;;5077662;28;20228;-58
2023/08/02 04:02:00;;;;;;;3.17;1.48;;;18.40;99.90;;;;;;5077664;28;20243;-58
2023/08/02 04:04:27;;;;;;;3.20;1.40;;;18.40;99.90;;;;;;5077525;28;20224;-58
2023/08/02 04:06:54;;;;;;;3.25;1.55;;;18.50;99.90;;;;;;5077279;28;20215;-59
2023/08/02 04:09:20;;;;;;;3.25;1.60;;;18.50;99.90;;;;;;5077743;28;20201;-59
2023/08/02 04:11:48;;;;;;;5.10;1.55;;;18.60;99.90;;;;;;5077755;28;20208;-58
2023/08/02 04:14:15;;;;;;;3.50;1.40;;;18.60;99.90;;;;;;5077778;28;20561;-59
2023/08/02 04:16:42;;;;;;;4.35;1.65;;;18.70;99.90;;;;;;5077272;28;20216;-57
2023/08/02 04:19:08;;;;;;;3.22;1.33;;;18.70;99.90;;;;;;5077527;28;20204;-59
2023/08/02 04:21:35;;;;;;;4.20;1.73;;;18.80;99.90;;;;;;5077323;28;20217;-59
2023/08/02 04:24:02;;;;;;;4.10;1.55;;;18.80;99.90;;;;;;5077582;28;20225;-59
2023/08/02 04:26:28;;;;;;;2.88;1.60;;;18.70;99.90;;;;;;5077292;28;20212;-57
2023/08/02 04:28:56;;;;;;;3.30;1.63;;;18.80;99.90;;;;;;5077481;28;20205;-58
2023/08/02 04:31:23;;;;;;;4.28;2.42;;;18.90;99.90;;;;;;5077291;28;20220;-58
2023/08/02 04:33:50;;;;;;;3.15;1.33;;;18.90;99.90;;;;;;5077260;28;20236;-58
2023/08/02 04:36:16;;;;;;;2.67;2.28;;;19.00;99.90;;;;;;5077442;28;20205;-58
2023/08/02 04:38:43;;;;;;;5.35;2.10;;;19.00;99.90;;;;;;5077435;28;20216;-58
2023/08/02 04:41:15;;;;;;;4.97;1.65;;;19.00;99.90;;;;;;5077080;28;20224;-58
2023/08/02 04:43:42;;;;;;;2.05;1.45;;;19.00;99.90;;;;;;5073318;28;20225;-58
2023/08/02 04:46:10;;;;;;;2.95;1.38;;;19.00;99.90;;;;;;5073738;28;20232;-58
2023/08/02 04:48:36;;;;;;;4.22;1.98;;;19.10;99.90;;;;;;5073800;28;20201;-58
2023/08/02 04:51:07;;;;;;;2.85;1.30;;;19.00;99.90;;;;;;5074402;28;20201;-58
2023/08/02 04:53:34;;;;;;;2.90;1.40;;;19.10;99.90;;;;;;5073960;28;20315;-58
2023/08/02 04:56:01;;;;;;;2.80;1.58;;;19.10;99.90;;;;;;5073683;28;20229;-58
2023/08/02 04:58:27;;;;;;;3.38;1.63;;;19.00;99.90;;;;;;5073955;28;20235;-58
2023/08/02 05:00:54;;;;;;;3.42;1.50;;;19.00;99.90;;;;;;5073612;28;20220;-57
2023/08/02 05:03:22;;;;;;;2.40;1.30;;;19.00;99.90;;;;;;5073623;28;20236;-58
2023/08/02 05:05:49;;;;;;;2.78;1.60;;;19.00;99.90;;;;;;5073645;28;20205;-57
2023/08/02 05:08:16;;;;;;;6.00;1.65;;;19.00;99.90;;;;;;5073843;28;20244;-58
2023/08/02 05:10:43;;;;;;;2.85;1.80;;;19.00;99.90;;;;;;5073455;28;20656;-57
2023/08/02 05:13:09;;;;;;;4.05;1.70;;;18.90;99.90;;;;;;5073693;28;20235;-59
2023/08/02 05:15:37;;;;;;;3.25;1.60;;;18.90;99.90;;;;;;5074029;28;20220;-58
2023/08/02 05:18:04;;;;;;;4.18;1.83;;;19.00;99.90;;;;;;5075586;28;20209;-58
2023/08/02 05:20:33;;;;;;;1.90;1.30;;;19.00;99.90;;;;;;5076299;28;20221;-58
2023/08/02 05:22:59;;;;;;;3.30;1.38;;;19.00;99.90;;;;;;5073903;28;20249;-58
2023/08/02 05:25:30;;;;;;;2.97;1.90;;;19.00;99.90;;;;;;5073499;28;20231;-58
2023/08/02 05:27:57;;;;;;;3.88;1.88;;;19.00;99.90;;;;;;5073513;28;20212;-58
2023/08/02 05:30:24;;;;;;;4.20;2.13;;;18.80;99.90;;;;;;5073999;28;20201;-58
2023/08/02 05:32:51;;;;;;;2.72;1.60;;;18.80;99.90;;;;;;5073483;28;20248;-58
2023/08/02 05:35:18;;;;;;;4.72;1.80;;;18.70;99.90;;;;;;5073787;28;20296;-58
2023/08/02 05:37:46;;;;;;;4.47;1.98;;;18.70;99.90;;;;;;5073500;28;20209;-58
2023/08/02 05:40:13;;;;;;;2.70;2.00;;;18.70;99.90;;;;;;5073277;28;20729;-58
2023/08/02 05:42:39;;;;;;;5.38;2.05;;;18.70;99.90;;;;;;5073245;28;20236;-58
2023/08/02 05:45:07;;;;;;;4.68;2.17;;;18.60;99.90;;;;;;5072988;28;20602;-58
2023/08/02 05:47:34;;;;;;;3.28;1.73;;;18.60;99.90;;;;;;5072903;28;20231;-58
2023/08/02 05:50:01;;;;;;;3.08;2.13;;;18.60;99.90;;;;;;5073070;28;20203;-58
2023/08/02 05:52:28;;;;;;;3.33;2.10;;;18.60;99.90;;;;;;5073005;28;20208;-58
2023/08/02 05:54:56;;;;;;;3.85;1.90;;;18.60;99.90;;;;;;5072321;28;20681;-58
2023/08/02 05:57:23;;;;;;;2.97;1.90;;;18.60;99.90;;;;;;5073031;28;20208;-59
2023/08/02 05:59:50;;;;;;;2.70;1.50;;;18.60;99.90;;;;;;5073265;28;20232;-59
2023/08/02 06:02:17;;;;;;;2.28;1.83;;;18.60;99.90;;;;;;5073021;28;20703;-58
2023/08/02 06:04:45;;;;;;;2.15;1.77;;;18.60;99.90;;;;;;5072761;28;20205;-58
2023/08/02 06:07:12;;;;;;;3.72;1.90;;;18.60;99.90;;;;;;5072485;28;20223;-58
2023/08/02 06:09:39;;;;;;;3.05;1.90;;;18.70;99.90;;;;;;5072543;28;20212;-58
2023/08/02 06:12:08;;;;;;;2.45;1.90;;;18.70;99.90;;;;;;5072645;28;20204;-58
2023/08/02 06:14:35;;;;;;;2.63;1.98;;;18.70;99.90;;;;;;5072476;28;20585;-58
2023/08/02 06:17:02;;;;;;;4.03;2.30;;;18.70;99.90;;;;;;5072417;28;20209;-59
2023/08/02 06:19:29;;;;;;;3.50;1.90;;;18.70;99.90;;;;;;5072517;28;20205;-58
2023/08/02 06:21:56;;;;;;;2.70;1.90;;;18.70;99.90;;;;;;5072355;28;20225;-58
2023/08/02 06:24:23;;;;;;;4.00;2.50;;;18.70;99.90;;;;;;5072081;28;20229;-58
2023/08/02 06:26:49;;;;;;;2.92;2.47;;;18.70;99.90;;;;;;5072302;28;20209;-58
2023/08/02 06:29:18;;;;;;;3.72;2.20;;;18.80;99.90;;;;;;5071985;28;20685;-58
2023/08/02 06:31:44;;;;;;;3.38;2.10;;;18.70;99.90;;;;;;5072053;28;20205;-58
2023/08/02 06:34:11;;;;;;;2.97;2.17;;;18.70;99.90;;;;;;5074282;22;20712;-63
2023/08/02 06:36:38;;;;;;;3.95;2.55;;;18.70;99.90;;;;;;5043585;28;20212;-64
2023/08/02 06:39:05;;;;;;;4.35;2.90;;;18.70;99.90;;;;;;5052236;28;20304;-64
2023/08/02 06:41:31;;;;;;;3.35;2.80;;;18.70;99.90;;;;;;5051915;28;20225;-64
2023/08/02 06:43:58;;;;;;;3.97;2.70;;;18.60;99.90;;;;;;5052030;28;20225;-64
2023/08/02 06:46:26;;;;;;;3.67;2.67;;;18.70;99.90;;;;;;5051713;28;20284;-64
2023/08/02 06:48:53;;;;;;;3.95;2.63;;;18.60;99.90;;;;;;5051597;28;20205;-63
2023/08/02 06:51:19;;;;;;;4.70;3.17;;;18.50;99.90;;;;;;5051547;28;20198;-63
2023/08/02 06:53:46;;;;;;;5.68;2.97;;;18.50;99.90;;;;;;5051526;28;20229;-61
2023/08/02 06:56:14;;;;;;;7.32;3.10;;;18.30;99.90;;;;;;5051468;28;20217;-61
2023/08/02 06:58:41;;;;;;;4.22;3.00;;;18.20;99.90;;;;;;5051503;28;20213;-61
2023/08/02 07:01:15;;;;;;;4.15;3.33;;;18.30;99.90;;;;;;5051478;28;20226;-61
2023/08/02 07:03:44;;;;;;;4.35;3.13;;;18.50;99.90;;;;;;5051248;28;20716;-61
2023/08/02 07:06:11;;;;;;;3.58;2.58;;;18.70;99.90;;;;;;5050229;28;20208;-62
2023/08/02 07:08:38;;;;;;;4.75;3.10;;;19.00;99.90;;;;;;5051421;28;20214;-62
2023/08/02 07:11:05;;;;;;;4.90;3.45;;;19.20;99.90;;;;;;5051309;28;20205;-62
2023/08/02 07:13:32;;;;;;;5.53;3.13;;;19.40;99.90;;;;;;5051036;28;20226;-61
2023/08/02 07:15:58;;;;;;;3.30;2.67;;;19.60;99.90;;;;;;5051294;28;20225;-61
2023/08/02 07:18:25;;;;;;;6.55;3.42;;;19.60;99.90;;;;;;5051031;28;20209;-62
2023/08/02 07:20:53;;;;;;;3.80;3.05;;;19.60;99.90;;;;;;5051003;28;20241;-61
2023/08/02 07:23:21;;;;;;;4.15;2.90;;;19.60;99.90;;;;;;5051144;28;20252;-61
2023/08/02 07:25:47;;;;;;;3.60;3.15;;;19.60;99.90;;;;;;5050973;28;20211;-61
2023/08/02 07:28:14;;;;;;;4.13;3.20;;;19.50;99.90;;;;;;5051176;28;20213;-61
2023/08/02 07:30:41;;;;;;;3.47;2.97;;;19.60;99.90;;;;;;5051232;28;20201;-62
2023/08/02 07:33:08;;;;;;;3.22;2.92;;;19.60;99.90;;;;;;5050651;28;20241;-61
2023/08/02 07:35:36;;;;;;;5.03;3.28;;;19.70;99.90;;;;;;5051519;28;20213;-61
2023/08/02 07:38:04;;;;;;;4.07;3.58;;;19.80;99.90;;;;;;5050960;28;20237;-61
2023/08/02 07:40:31;;;;;;;5.03;3.33;;;20.00;99.90;;;;;;5050896;28;20228;-60
2023/08/02 07:42:57;;;;;;;4.65;3.22;;;20.20;99.90;;;;;;5050747;28;20689;-62
2023/08/02 07:45:24;;;;;;;3.70;2.90;;;20.40;99.90;;;;;;5050902;28;20220;-61
2023/08/02 07:47:51;;;;;;;3.50;2.90;;;20.60;99.90;;;;;;5050610;28;20206;-61
2023/08/02 07:50:18;;;;;;;3.47;3.00;;;20.70;99.90;;;;;;5051203;28;20209;-60
2023/08/02 07:52:45;;;;;;;5.28;3.03;;;20.80;99.90;;;;;;5051267;28;20299;-60
2023/08/02 07:55:13;;;;;;;4.13;3.47;;;20.80;99.90;;;;;;5050991;28;20205;-60
2023/08/02 07:57:39;;;;;;;3.45;2.95;;;20.90;99.90;;;;;;5050456;28;20213;-62
2023/08/02 08:00:07;;;;;;;3.88;3.25;;;21.00;99.90;;;;;;5050601;28;20570;-61
2023/08/02 08:02:34;;;;;;;4.18;3.00;;;21.10;99.90;;;;;;5050797;28;20210;-62
2023/08/02 08:05:01;;;;;;;3.38;3.08;;;21.30;99.90;;;;;;5050661;28;20213;-61
2023/08/02 08:07:28;;;;;;;4.82;3.00;;;21.50;99.90;;;;;;5050453;28;20304;-61
2023/08/02 08:09:54;;;;;;;4.85;3.25;;;21.60;99.90;;;;;;5050680;28;20220;-61
2023/08/02 08:12:24;;;;;;;6.15;2.97;;;21.50;99.90;;;;;;5050548;28;20205;-61
2023/08/02 08:14:52;;;;;;;3.63;2.88;;;21.60;99.90;;;;;;5050493;28;20228;-61
2023/08/02 08:17:18;;;;;;;3.95;2.78;;;21.70;99.90;;;;;;5051479;28;20240;-62
2023/08/02 08:19:45;;;;;;;4.72;2.97;;;21.80;99.90;;;;;;5054413;28;20342;-62
2023/08/02 08:22:12;;;;;;;4.93;3.22;;;21.80;99.90;;;;;;5054137;28;20709;-61
2023/08/02 08:24:39;;;;;;;5.00;3.50;;;21.80;99.90;;;;;;5054265;28;20225;-61
2023/08/02 08:27:06;;;;;;;4.60;3.15;;;21.90;99.90;;;;;;5053939;28;20684;-61
2023/08/02 08:29:34;;;;;;;3.95;2.92;;;21.90;99.90;;;;;;5054063;28;20201;-61
2023/08/02 08:32:00;;;;;;;3.42;3.03;;;21.90;99.90;;;;;;5054120;28;20208;-61
2023/08/02 08:34:27;;;;;;;3.35;2.90;;;21.80;99.90;;;;;;5053752;28;20725;-61
2023/08/02 08:36:54;;;;;;;3.80;2.97;;;21.80;99.90;;;;;;5053625;28;20208;-62
2023/08/02 08:39:20;;;;;;;4.80;2.78;;;21.80;99.90;;;;;;5053772;28;20531;-62
2023/08/02 08:41:47;;;;;;;4.28;3.15;;;21.60;99.90;;;;;;5053619;28;20676;-60
2023/08/02 08:44:14;;;;;;;3.38;2.65;;;21.60;99.90;;;;;;5054138;28;20233;-62
2023/08/02 08:46:43;;;;;;;3.75;2.90;;;21.50;99.90;;;;;;5053715;28;20209;-61
2023/08/02 08:49:10;;;;;;;4.53;2.78;;;21.50;99.90;;;;;;5053899;28;20217;-61
2023/08/02 08:51:42;;;;;;;3.83;2.90;;;21.40;99.90;;;;;;5053802;28;20198;-61
2023/08/02 08:54:26;;;;;;;3.88;2.97;;;21.50;99.90;;;;;;5053940;28;20244;-62
2023/08/02 08:56:54;;;;;;;7.85;3.03;;;21.50;99.90;;;;;;5053775;28;20698;-61
2023/08/02 08:59:20;;;;;;;3.83;2.85;;;21.40;99.90;;;;;;5053831;28;20213;-61
2023/08/02 09:01:50;;;;;;;4.57;2.85;;;21.20;99.90;;;;;;5053687;28;20256;-61
2023/08/02 09:04:17;;;;;;;3.85;2.88;;;21.10;99.90;;;;;;5053531;28;20256;-62
2023/08/02 09:06:43;;;;;;;3.58;2.80;;;21.10;99.90;;;;;;5052981;28;20206;-61
2023/08/02 09:09:14;;;;;;;3.55;2.90;;;21.10;99.90;;;;;;5053783;28;20209;-62
2023/08/02 09:11:42;;;;;;;3.75;2.92;;;21.00;99.90;;;;;;5053454;28;20206;-62
2023/08/02 09:14:13;;;;;;;2.83;2.53;;;20.90;99.90;;;;;;5053182;28;20245;-61
2023/08/02 09:16:57;;;;;;;3.83;2.80;;;20.80;99.90;;;;;;5052923;28;20212;-61
2023/08/02 09:19:24;;;;;;;3.80;2.97;;;20.80;99.90;;;;;;5052763;28;20205;-64
2023/08/02 09:22:06;;;;;;;3.28;2.60;;;20.70;99.90;;;;;;5052966;28;20225;-64
2023/08/02 09:24:34;;;;;;;3.55;2.47;;;20.60;99.90;;;;;;5035512;28;20245;-65
2023/08/02 09:27:01;;;;;;;3.03;2.70;;;20.50;99.90;;;;;;5032399;28;20232;-62
2023/08/02 09:29:43;;;;;;;3.22;2.40;;;20.40;99.90;;;;;;5032234;28;20233;-67
2023/08/02 09:32:12;;;;;;;5.15;2.42;;;20.50;99.90;;;;;;5033355;28;20268;-62
2023/08/02 09:34:44;;;;;;;3.17;2.80;;;20.60;99.90;;;;;;5032828;28;20288;-62
2023/08/02 09:37:12;;;;;;;3.33;2.20;;;20.60;99.90;;;;;;5032443;28;20210;-62
2023/08/02 09:39:39;;;;;;;2.28;2.08;;;20.50;99.90;;;;;;5032872;28;20214;-66
2023/08/02 09:42:11;;;;;;;4.07;2.50;;;20.40;99.90;;;;;;5030113;28;20230;-66
2023/08/02 09:44:37;;;;;;;3.08;1.90;;;20.40;99.90;;;;;;5032706;28;20241;-67
2023/08/02 09:47:12;;;;;;;2.60;2.20;;;20.30;99.90;;;;;;5051561;28;20202;-65
2023/08/02 09:49:40;;;;;;;2.92;2.20;;;20.40;99.90;;;;;;5052285;28;20401;-66
2023/08/02 09:52:08;;;;;;;3.33;2.67;;;20.50;99.90;;;;;;5052219;28;20212;-65
2023/08/02 09:54:35;;;;;;;2.92;2.60;;;20.60;99.90;;;;;;5051566;28;20222;-67
2023/08/02 09:57:02;;;;;;;4.03;2.10;;;20.60;99.90;;;;;;5023627;28;20222;-65
2023/08/02 09:59:31;;;;;;;2.25;1.80;;;20.70;99.90;;;;;;5029872;28;20206;-66
2023/08/02 10:01:59;;;;;;;2.17;1.92;;;20.90;99.90;;;;;;5031285;28;20709;-65
2023/08/02 10:04:28;;;;;;;2.65;2.22;;;21.00;99.90;;;;;;5030931;28;20726;-64
2023/08/02 10:07:01;;;;;;;2.53;2.10;;;21.30;99.90;;;;;;5031326;28;20308;-66
2023/08/02 10:09:31;;;;;;;2.88;2.13;;;21.50;99.90;;;;;;5031235;28;20209;-64
2023/08/02 10:12:05;;;;;;;3.70;2.00;;;21.70;99.90;;;;;;5031500;28;20872;-67
2023/08/02 10:14:32;;;;;;;2.60;2.30;;;22.10;99.90;;;;;;5031180;28;20233;-63
2023/08/02 10:17:01;;;;;;;3.05;2.50;;;22.40;99.90;;;;;;5030623;28;20210;-65
2023/08/02 10:19:30;;;;;;;2.92;2.10;;;22.60;99.90;;;;;;5030991;28;20220;-61
2023/08/02 10:21:58;;;;;;;2.72;2.15;;;23.00;99.90;;;;;;5031086;28;20341;-65
2023/08/02 10:24:26;;;;;;;3.38;2.13;;;23.30;99.90;;;;;;5031114;28;20350;-62
2023/08/02 10:26:54;;;;;;;2.10;1.90;;;23.60;99.90;;;;;;5030509;28;20548;-62
2023/08/02 10:29:21;;;;;;;3.05;2.20;;;23.60;99.90;;;;;;5030578;28;20592;-61
2023/08/02 10:31:48;;;;;;;3.92;2.15;;;23.50;99.90;;;;;;5030915;28;20728;-63
2023/08/02 10:34:51;;;;;;;2.63;2.08;;;23.40;99.90;;;;;;5030588;28;20257;-65
2023/08/02 10:37:19;;;;;;;5.65;2.00;;;23.40;99.90;;;;;;5030426;28;20221;-62
2023/08/02 10:39:53;;;;;;;4.20;2.28;;;23.80;99.90;;;;;;5030466;28;20218;-64
2023/08/02 10:42:21;;;;;;;3.38;2.45;;;24.20;99.90;;;;;;5029837;28;20262;-63
2023/08/02 10:45:14;;;;;;;2.65;2.15;;;24.70;99.90;;;;;;5030434;28;20284;-64
2023/08/02 10:47:41;;;;;;;3.22;2.22;;;25.00;99.90;;;;;;5030666;28;20252;-64
2023/08/02 10:50:48;;;;;;;3.00;2.53;;;25.20;99.90;;;;;;5030792;28;20210;-65
2023/08/02 10:53:15;;;;;;;2.83;2.10;;;25.20;99.90;;;;;;5030075;28;20236;-65
2023/08/02 10:56:04;;;;;;;3.92;2.55;;;25.00;99.90;;;;;;5030230;28;20575;-64
2023/08/02 10:58:49;;;;;;;3.03;2.50;;;24.70;99.90;;;;;;5030617;28;20241;-64
2023/08/02 11:01:16;;;;;;;2.70;2.20;;;24.40;99.90;;;;;;5030835;28;20206;-64
2023/08/02 11:03:43;;;;;;;2.92;2.33;;;24.00;99.90;;;;;;5030324;28;20352;-64
2023/08/02 11:06:25;;;;;;;5.00;2.65;;;23.80;99.90;;;;;;5029924;28;20320;-64
2023/08/02 11:08:52;;;;;;;5.22;2.60;;;23.60;99.90;;;;;;5030451;28;20210;-63
2023/08/02 11:11:29;;;;;;;3.42;2.70;;;23.40;99.90;;;;;;5030755;28;20213;-63
2023/08/02 11:13:56;;;;;;;3.65;2.65;;;23.50;99.90;;;;;;5030192;28;20226;-64
2023/08/02 11:16:23;;;;;;;5.20;2.75;;;23.60;99.90;;;;;;5029914;28;20206;-64
2023/08/02 11:18:50;;;;;;;3.17;2.70;;;23.60;99.90;;;;;;5030507;28;20221;-65
2023/08/02 11:21:17;;;;;;;3.28;2.60;;;23.60;99.90;;;;;;5030169;28;20244;-64
2023/08/02 11:23:49;;;;;;;4.00;2.55;;;23.50;99.90;;;;;;5030096;28;20230;-64
2023/08/02 11:26:17;;;;;;;4.13;2.45;;;23.50;99.90;;;;;;5029877;28;20210;-63
2023/08/02 11:28:46;;;;;;;2.72;2.47;;;23.50;99.90;;;;;;5029794;28;20213;-64
2023/08/02 11:31:13;;;;;;;3.38;2.53;;;23.40;99.90;;;;;;5030034;28;20304;-65
2023/08/02 11:33:40;;;;;;;3.65;2.42;;;23.40;99.90;;;;;;5030540;28;20256;-65
2023/08/02 11:36:07;;;;;;;4.90;3.03;;;23.20;99.90;;;;;;5030931;28;20206;-65
2023/08/02 11:38:36;;;;;;;5.28;2.80;;;23.10;99.90;;;;;;5030543;28;20401;-64
2023/08/02 11:41:16;;;;;;;3.28;2.63;;;23.00;99.90;;;;;;5030047;28;20211;-65
2023/08/02 11:43:43;;;;;;;4.53;2.85;;;22.80;99.90;;;;;;5031509;28;20233;-67
2023/08/02 11:46:13;;;;;;;2.90;2.60;;;22.80;99.90;;;;;;5029768;28;20783;-65
2023/08/02 11:48:40;;;;;;;3.97;2.72;;;22.70;99.90;;;;;;5030077;28;20276;-65
2023/08/02 11:51:08;;;;;;;3.65;2.63;;;22.60;99.90;;;;;;5029438;28;20210;-63
2023/08/02 11:53:35;;;;;;;3.97;3.03;;;22.50;99.90;;;;;;5033106;28;20226;-63
2023/08/02 11:56:04;;;;;;;4.82;2.90;;;22.50;99.90;;;;;;5033558;28;20210;-63
2023/08/02 11:58:31;;;;;;;3.00;2.72;;;22.40;99.90;;;;;;5033701;28;20217;-64
2023/08/02 12:00:58;;;;;;;3.13;2.70;;;22.50;99.90;;;;;;5033672;28;20694;-67
2023/08/02 12:03:25;;;;;;;17.30;15.15;;;22.60;99.90;;;;;;5033345;28;20230;-64
2023/08/02 12:06:01;;;;;;;3.20;2.90;;;22.70;99.90;;;;;;5032861;28;20206;-63
2023/08/02 12:08:28;;;;;;;3.90;3.08;;;22.80;99.90;;;;;;5033536;28;20216;-62
2023/08/02 12:10:55;;;;;;;3.85;3.00;;;22.80;99.90;;;;;;5033565;28;20213;-62
2023/08/02 12:13:23;;;;;;;3.63;2.92;;;22.80;99.90;;;;;;5033277;28;20222;-62
2023/08/02 12:16:00;;;;;;;5.05;3.10;;;22.80;99.90;;;;;;5033110;28;20221;-62
2023/08/02 12:18:27;;;;;;;3.33;2.92;;;22.80;99.90;;;;;;5033273;28;20217;-64
2023/08/02 12:20:54;;;;;;;3.20;2.85;;;22.80;99.90;;;;;;5033889;28;20217;-67
2023/08/02 12:23:31;;;;;;;4.45;3.25;;;22.90;99.90;;;;;;5033354;28;20238;-64
2023/08/02 12:25:58;;;;;;;5.53;3.58;;;23.00;99.90;;;;;;5033196;28;20213;-63
2023/08/02 12:28:26;;;;;;;3.80;2.88;;;23.10;99.90;;;;;;5032919;28;20664;-66
2023/08/02 12:31:03;;;;;;;5.50;3.33;;;23.30;99.90;;;;;;5032669;28;20206;-64
2023/08/02 12:33:31;;;;;;;4.47;3.00;;;23.50;99.90;;;;;;5062233;22;20290;-58
2023/08/02 12:35:58;;;;;;;4.03;2.75;;;23.80;99.90;;;;;;5053643;28;20205;-61
2023/08/02 12:38:29;;;;;;;4.30;2.78;;;24.00;99.90;;;;;;5053599;28;20201;-59
2023/08/02 12:40:56;;;;;;;4.45;3.13;;;24.40;99.90;;;;;;5052409;28;20213;-62
2023/08/02 12:43:23;;;;;;;2.85;2.55;;;24.70;99.90;;;;;;5052613;28;20237;-62
2023/08/02 12:45:51;;;;;;;3.85;2.72;;;25.10;99.90;;;;;;5053018;28;20214;-60
2023/08/02 12:48:18;;;;;;;5.55;2.78;;;25.50;99.90;;;;;;5053793;28;20559;-58
2023/08/02 12:50:45;;;;;;;4.10;2.53;;;25.70;99.90;;;;;;5053604;28;20680;-58